createdAt,value
2023-05-03T00:01:18.995Z,1.73
2023-05-03T00:03:45.884Z,1.50
2023-05-03T00:06:16.125Z,1.60
2023-05-03T00:08:43.458Z,1.87
2023-05-03T00:11:11.009Z,1.90
2023-05-03T00:13:37.471Z,2.78
2023-05-03T00:16:04.153Z,1.35
2023-05-03T00:18:30.726Z,1.40
2023-05-03T00:20:58.876Z,1.70
2023-05-03T00:23:25.751Z,1.50
2023-05-03T00:25:56.475Z,1.30
2023-05-03T00:28:24.900Z,2.00
2023-05-03T00:30:52.439Z,1.53
2023-05-03T00:33:19.018Z,2.17
2023-05-03T00:35:45.801Z,1.60
2023-05-03T00:38:14.211Z,1.50
2023-05-03T00:40:41.023Z,1.80
2023-05-03T00:43:07.690Z,2.13
2023-05-03T00:45:34.704Z,1.67
2023-05-03T00:48:01.414Z,1.67
2023-05-03T00:50:28.254Z,1.77
2023-05-03T00:52:54.758Z,1.70
2023-05-03T00:55:21.744Z,1.50
2023-05-03T00:57:48.190Z,1.77
2023-05-03T01:00:15.236Z,1.53
2023-05-03T01:02:41.822Z,1.60
2023-05-03T01:05:09.027Z,1.70
2023-05-03T01:07:46.289Z,1.40
2023-05-03T01:10:31.829Z,1.60
2023-05-03T01:13:42.640Z,1.73
2023-05-03T01:16:19.518Z,1.50
2023-05-03T01:18:49.718Z,1.77
2023-05-03T01:21:22.713Z,2.03
2023-05-03T01:24:09.583Z,1.40
2023-05-03T01:26:36.193Z,1.63
2023-05-03T01:29:03.078Z,1.43
2023-05-03T01:31:39.283Z,1.30
2023-05-03T01:34:12.892Z,1.73
2023-05-03T01:36:41.222Z,1.17
2023-05-03T01:39:11.048Z,2.10
2023-05-03T01:41:38.807Z,1.27
2023-05-03T01:44:05.660Z,1.17
2023-05-03T01:46:32.322Z,1.20
2023-05-03T01:48:59.480Z,1.07
2023-05-03T01:51:25.997Z,1.13
2023-05-03T01:53:54.404Z,0.90
2023-05-03T01:56:23.144Z,1.17
2023-05-03T01:58:51.217Z,1.10
2023-05-03T02:01:18.445Z,1.17
2023-05-03T02:03:45.422Z,1.10
2023-05-03T02:06:11.962Z,1.60
2023-05-03T02:08:38.512Z,1.50
2023-05-03T02:11:05.174Z,0.90
2023-05-03T02:13:32.035Z,0.90
2023-05-03T02:15:58.542Z,0.90
2023-05-03T02:18:26.314Z,1.10
2023-05-03T02:20:52.926Z,1.13
2023-05-03T02:23:19.719Z,1.10
2023-05-03T02:25:46.189Z,1.40
2023-05-03T02:28:12.728Z,1.40
2023-05-03T02:30:39.387Z,1.10
2023-05-03T02:33:06.336Z,1.17
2023-05-03T02:35:33.672Z,1.13
2023-05-03T02:38:00.446Z,1.23
2023-05-03T02:40:27.014Z,1.20
2023-05-03T02:42:53.630Z,1.10
2023-05-03T02:45:20.972Z,1.27
2023-05-03T02:47:47.521Z,1.20
2023-05-03T02:50:15.052Z,1.30
2023-05-03T02:52:41.432Z,1.23
2023-05-03T02:55:08.509Z,1.17
2023-05-03T02:57:34.993Z,1.00
2023-05-03T03:00:01.859Z,1.10
2023-05-03T03:02:29.167Z,1.20
2023-05-03T03:04:55.735Z,1.60
2023-05-03T03:07:22.233Z,1.30
2023-05-03T03:09:48.685Z,1.50
2023-05-03T03:12:15.280Z,1.23
2023-05-03T03:14:42.774Z,1.07
2023-05-03T03:17:09.258Z,1.87
2023-05-03T03:19:35.814Z,1.20
2023-05-03T03:22:02.226Z,1.37
2023-05-03T03:24:28.710Z,1.20
2023-05-03T03:26:55.226Z,1.07
2023-05-03T03:29:21.785Z,1.20
2023-05-03T03:31:48.229Z,2.07
2023-05-03T03:34:14.759Z,1.20
2023-05-03T03:36:41.180Z,1.43
2023-05-03T03:39:07.679Z,1.17
2023-05-03T03:41:34.217Z,1.67
2023-05-03T03:44:00.684Z,1.53
2023-05-03T03:46:27.244Z,1.20
2023-05-03T03:48:53.848Z,2.43
2023-05-03T03:51:20.384Z,1.40
2023-05-03T03:53:46.820Z,1.20
2023-05-03T03:56:13.270Z,1.30
2023-05-03T03:58:39.833Z,2.10
2023-05-03T04:01:06.505Z,1.07
2023-05-03T04:03:33.513Z,1.17
2023-05-03T04:06:00.272Z,1.63
2023-05-03T04:08:26.727Z,1.50
2023-05-03T04:10:53.139Z,1.67
2023-05-03T04:13:19.673Z,1.50
2023-05-03T04:15:46.226Z,1.50
2023-05-03T04:18:12.807Z,1.80
2023-05-03T04:20:39.308Z,1.30
2023-05-03T04:23:06.777Z,1.83
2023-05-03T04:25:33.265Z,1.30
2023-05-03T04:27:59.992Z,1.30
2023-05-03T04:30:26.730Z,2.20
2023-05-03T04:32:55.400Z,1.50
2023-05-03T04:35:21.934Z,1.50
2023-05-03T04:37:48.426Z,1.37
2023-05-03T04:40:17.133Z,1.40
2023-05-03T04:42:43.711Z,1.00
2023-05-03T04:45:10.864Z,1.07
2023-05-03T04:47:37.402Z,1.23
2023-05-03T04:50:04.440Z,1.10
2023-05-03T04:52:31.737Z,1.00
2023-05-03T04:54:58.182Z,1.20
2023-05-03T04:57:24.717Z,1.10
2023-05-03T04:59:51.389Z,1.37
2023-05-03T05:02:18.178Z,1.13
2023-05-03T05:04:44.642Z,1.10
2023-05-03T05:07:12.778Z,0.93
2023-05-03T05:09:39.902Z,1.30
2023-05-03T05:12:06.927Z,1.30
2023-05-03T05:14:33.379Z,1.10
2023-05-03T05:16:59.973Z,1.05
2023-05-03T05:19:26.695Z,0.98
2023-05-03T05:21:53.229Z,1.20
2023-05-03T05:24:19.783Z,1.13
2023-05-03T05:26:46.950Z,0.90
2023-05-03T05:29:13.388Z,1.30
2023-05-03T05:31:39.955Z,1.35
2023-05-03T05:34:06.590Z,1.13
2023-05-03T05:36:33.325Z,1.10
2023-05-03T05:38:59.938Z,1.00
2023-05-03T05:41:26.508Z,1.07
2023-05-03T05:43:53.342Z,1.08
2023-05-03T05:46:21.600Z,1.17
2023-05-03T05:48:51.289Z,1.10
2023-05-03T05:51:20.990Z,1.15
2023-05-03T05:53:47.436Z,1.00
2023-05-03T05:56:14.381Z,0.82
2023-05-03T05:58:40.782Z,1.20
2023-05-03T06:01:07.411Z,1.20
2023-05-03T06:03:34.293Z,0.98
2023-05-03T06:06:01.077Z,1.55
2023-05-03T06:08:27.805Z,1.00
2023-05-03T06:10:54.300Z,1.13
2023-05-03T06:13:21.900Z,1.23
2023-05-03T06:15:48.756Z,1.00
2023-05-03T06:18:15.742Z,1.00
2023-05-03T06:20:42.588Z,1.00
2023-05-03T06:23:09.082Z,1.17
2023-05-03T06:25:36.450Z,0.80
2023-05-03T06:28:03.028Z,1.20
2023-05-03T06:30:29.543Z,1.15
2023-05-03T06:32:56.100Z,0.75
2023-05-03T06:35:22.662Z,0.90
2023-05-03T06:37:49.554Z,1.10
2023-05-03T06:40:16.380Z,0.88
2023-05-03T06:42:43.068Z,1.08
2023-05-03T06:45:10.046Z,0.80
2023-05-03T06:47:37.189Z,0.95
2023-05-03T06:50:04.430Z,1.40
2023-05-03T06:52:31.069Z,0.88
2023-05-03T06:54:57.578Z,1.02
2023-05-03T06:57:24.086Z,1.02
2023-05-03T06:59:50.666Z,1.05
2023-05-03T07:02:18.201Z,0.90
2023-05-03T07:04:44.635Z,0.95
2023-05-03T07:07:11.362Z,0.82
2023-05-03T07:09:43.221Z,0.90
2023-05-03T07:12:10.850Z,1.30
2023-05-03T07:14:38.636Z,1.00
2023-05-03T07:17:05.220Z,0.70
2023-05-03T07:19:32.060Z,1.35
2023-05-03T07:21:58.926Z,1.00
2023-05-03T07:24:26.057Z,0.90
2023-05-03T07:26:53.712Z,1.00
2023-05-03T07:29:20.618Z,1.08
2023-05-03T07:31:47.322Z,1.05
2023-05-03T07:34:14.089Z,0.90
2023-05-03T07:36:40.835Z,1.23
2023-05-03T07:39:07.419Z,1.20
2023-05-03T07:41:33.894Z,0.90
2023-05-03T07:44:00.518Z,1.38
2023-05-03T07:46:27.135Z,1.00
2023-05-03T07:48:54.173Z,1.00
2023-05-03T07:51:21.130Z,1.30
2023-05-03T07:53:47.700Z,0.95
2023-05-03T07:56:14.144Z,0.90
2023-05-03T07:58:41.638Z,0.98
2023-05-03T08:01:09.930Z,0.98
2023-05-03T08:03:36.692Z,1.17
2023-05-03T08:06:03.610Z,0.88
2023-05-03T08:08:32.188Z,1.00
2023-05-03T08:10:58.621Z,1.40
2023-05-03T08:13:25.217Z,1.00
2023-05-03T08:15:54.928Z,0.95
2023-05-03T08:18:23.726Z,1.05
2023-05-03T08:20:50.700Z,1.25
2023-05-03T08:23:17.893Z,1.10
2023-05-03T08:25:45.338Z,1.10
2023-05-03T08:28:11.836Z,1.27
2023-05-03T08:30:38.314Z,0.80
2023-05-03T08:33:04.817Z,0.85
2023-05-03T08:35:31.945Z,1.27
2023-05-03T08:37:58.465Z,1.05
2023-05-03T08:40:26.976Z,1.08
2023-05-03T08:42:55.470Z,1.20
2023-05-03T08:45:23.139Z,1.08
2023-05-03T08:47:53.978Z,1.25
2023-05-03T08:50:21.069Z,1.05
2023-05-03T08:52:47.578Z,1.55
2023-05-03T08:55:13.988Z,1.00
2023-05-03T08:57:41.284Z,1.20
2023-05-03T09:00:10.863Z,1.05
2023-05-03T09:02:39.775Z,1.05
2023-05-03T09:05:15.833Z,0.98
2023-05-03T09:08:01.402Z,1.13
2023-05-03T09:10:27.958Z,1.20
2023-05-03T09:12:59.770Z,1.15
2023-05-03T09:15:26.803Z,1.50
2023-05-03T09:18:09.881Z,1.70
2023-05-03T09:20:37.704Z,1.33
2023-05-03T09:23:04.358Z,0.80
2023-05-03T09:25:47.739Z,1.30
2023-05-03T09:28:15.625Z,1.30
2023-05-03T09:30:42.722Z,1.02
2023-05-03T09:33:10.528Z,1.10
2023-05-03T09:35:38.508Z,1.20
2023-05-03T09:38:06.223Z,1.02
2023-05-03T09:40:33.086Z,0.80
2023-05-03T09:43:08.130Z,0.98
2023-05-03T09:45:35.949Z,1.00
2023-05-03T09:48:04.411Z,0.95
2023-05-03T09:50:35.692Z,1.30
2023-05-03T09:53:04.492Z,1.65
2023-05-03T09:55:36.691Z,0.88
2023-05-03T09:58:06.973Z,0.65
2023-05-03T10:00:41.433Z,1.20
2023-05-03T10:03:10.455Z,1.33
2023-05-03T10:05:43.103Z,1.08
2023-05-03T10:08:11.377Z,0.93
2023-05-03T10:10:38.849Z,1.25
2023-05-03T10:13:05.509Z,1.27
2023-05-03T10:15:32.368Z,0.85
2023-05-03T10:18:03.557Z,1.10
2023-05-03T10:21:04.391Z,1.10
2023-05-03T10:23:30.797Z,0.80
2023-05-03T10:26:07.188Z,1.00
2023-05-03T10:28:34.005Z,1.20
2023-05-03T10:31:00.617Z,1.00
2023-05-03T10:33:36.655Z,1.05
2023-05-03T10:36:07.219Z,1.00
2023-05-03T10:38:33.729Z,1.17
2023-05-03T10:41:03.594Z,1.10
2023-05-03T10:43:30.557Z,1.40
2023-05-03T10:45:57.561Z,0.90
2023-05-03T10:48:24.192Z,0.90
2023-05-03T10:50:52.643Z,0.90
2023-05-03T10:53:32.427Z,1.10
2023-05-03T10:56:13.222Z,1.80
2023-05-03T10:58:45.324Z,0.80
2023-05-03T11:01:17.126Z,1.13
2023-05-03T11:03:47.516Z,1.10
2023-05-03T11:06:37.080Z,1.10
2023-05-03T11:09:06.503Z,1.17
2023-05-03T11:11:33.553Z,0.93
2023-05-03T11:14:00.114Z,0.80
2023-05-03T11:16:27.188Z,1.20
2023-05-03T11:18:53.981Z,1.20
2023-05-03T11:21:21.395Z,1.00
2023-05-03T11:23:47.969Z,1.40
2023-05-03T11:26:14.872Z,0.85
2023-05-03T11:28:42.340Z,0.93
2023-05-03T11:31:10.145Z,0.85
2023-05-03T11:33:38.251Z,0.90
2023-05-03T11:36:06.396Z,1.00
2023-05-03T11:38:34.144Z,0.80
2023-05-03T11:41:01.560Z,1.13
2023-05-03T11:43:28.879Z,0.98
2023-05-03T11:45:57.805Z,0.95
2023-05-03T11:48:25.942Z,1.10
2023-05-03T11:50:56.741Z,1.10
2023-05-03T11:53:24.496Z,1.02
2023-05-03T11:55:53.930Z,1.08
2023-05-03T11:58:23.398Z,1.40
2023-05-03T12:00:51.436Z,1.38
2023-05-03T12:03:20.076Z,1.10
2023-05-03T12:05:48.755Z,1.10
2023-05-03T12:08:18.639Z,1.10
2023-05-03T12:10:49.437Z,1.05
2023-05-03T12:13:38.352Z,1.13
2023-05-03T12:16:12.726Z,1.17
2023-05-03T12:18:53.722Z,1.05
2023-05-03T12:23:56.682Z,1.30
2023-05-03T12:26:25.356Z,1.00
2023-05-03T12:28:55.217Z,1.30
2023-05-03T12:31:24.466Z,1.10
2023-05-03T12:36:24.863Z,0.90
2023-05-03T12:38:56.065Z,1.17
2023-05-03T12:43:55.019Z,1.23
2023-05-03T12:46:33.825Z,1.38
2023-05-03T12:49:04.253Z,0.93
2023-05-03T12:51:33.757Z,1.10
2023-05-03T12:54:02.160Z,1.00
2023-05-03T12:56:32.333Z,1.05
2023-05-03T12:59:23.167Z,0.90
2023-05-03T13:03:08.442Z,1.05
2023-05-03T13:05:10.953Z,1.00
2023-05-03T13:07:27.934Z,0.77
2023-05-03T13:12:26.185Z,1.10
2023-05-03T13:14:53.884Z,1.02
2023-05-03T13:17:22.544Z,1.20
2023-05-03T13:19:50.053Z,1.13
2023-05-03T13:22:17.007Z,1.10
2023-05-03T13:24:44.897Z,1.30
2023-05-03T13:27:11.723Z,0.88
2023-05-03T13:29:39.035Z,1.30
2023-05-03T13:32:06.417Z,1.50
2023-05-03T13:34:33.834Z,1.08
2023-05-03T13:37:01.712Z,1.00
2023-05-03T13:39:28.193Z,1.10
2023-05-03T13:41:54.679Z,0.90
2023-05-03T13:44:25.118Z,1.00
2023-05-03T13:46:52.459Z,1.10
2023-05-03T13:49:19.009Z,1.10
2023-05-03T13:51:45.476Z,1.33
2023-05-03T13:54:11.885Z,1.10
2023-05-03T13:56:38.484Z,0.80
2023-05-03T13:59:07.288Z,1.02
2023-05-03T14:01:34.018Z,0.88
2023-05-03T14:04:00.875Z,0.95
2023-05-03T14:06:27.640Z,0.70
2023-05-03T14:08:54.844Z,1.15
2023-05-03T14:11:28.294Z,1.77
2023-05-03T14:13:57.573Z,1.30
2023-05-03T14:18:55.956Z,0.95
2023-05-03T14:21:22.651Z,1.40
2023-05-03T14:23:50.993Z,0.90
2023-05-03T14:26:17.966Z,1.10
2023-05-03T14:28:44.693Z,1.17
2023-05-03T14:31:11.512Z,1.20
2023-05-03T14:33:38.268Z,1.02
2023-05-03T14:36:08.704Z,1.20
2023-05-03T14:38:35.793Z,1.00
2023-05-03T14:41:02.314Z,0.80
2023-05-03T14:43:28.938Z,1.30
2023-05-03T14:45:55.415Z,0.90
2023-05-03T14:48:21.977Z,1.00
2023-05-03T14:50:54.202Z,1.30
2023-05-03T14:53:21.804Z,1.10
2023-05-03T14:55:50.393Z,0.90
2023-05-03T14:58:16.847Z,1.17
2023-05-03T15:00:43.576Z,0.95
2023-05-03T15:03:12.011Z,1.15
2023-05-03T15:05:49.827Z,1.52
2023-05-03T15:08:17.868Z,1.20
2023-05-03T15:10:44.790Z,1.10
2023-05-03T15:13:13.275Z,1.00
2023-05-03T15:15:40.858Z,1.10
2023-05-03T15:18:08.605Z,1.05
2023-05-03T15:20:35.753Z,1.00
2023-05-03T15:23:03.806Z,1.50
2023-05-03T15:25:30.594Z,1.25
2023-05-03T15:27:57.407Z,0.85
2023-05-03T15:30:23.915Z,1.10
2023-05-03T15:32:51.219Z,0.90
2023-05-03T15:35:18.109Z,0.88
2023-05-03T15:37:44.908Z,0.93
2023-05-03T15:40:13.092Z,1.00
2023-05-03T15:42:39.751Z,1.15
2023-05-03T15:45:07.467Z,1.00
2023-05-03T15:47:34.191Z,1.25
2023-05-03T15:50:02.407Z,1.10
2023-05-03T15:52:32.386Z,1.17
2023-05-03T15:54:59.975Z,1.00
2023-05-03T15:57:26.832Z,1.10
2023-05-03T15:59:54.112Z,1.10
2023-05-03T16:02:21.373Z,0.98
2023-05-03T16:04:50.371Z,1.00
2023-05-03T16:07:17.385Z,0.90
2023-05-03T16:09:43.949Z,1.15
2023-05-03T16:12:10.884Z,0.90
2023-05-03T16:14:38.183Z,0.93
2023-05-03T16:17:04.765Z,1.10
2023-05-03T16:19:32.024Z,0.90
2023-05-03T16:21:58.660Z,0.95
2023-05-03T16:24:25.197Z,0.95
2023-05-03T16:26:52.585Z,1.08
2023-05-03T16:29:19.246Z,1.08
2023-05-03T16:31:46.771Z,1.00
2023-05-03T16:34:14.353Z,0.98
2023-05-03T16:36:43.034Z,0.98
2023-05-03T16:39:13.379Z,0.93
2023-05-03T16:41:40.395Z,0.88
2023-05-03T16:44:08.421Z,1.00
2023-05-03T16:46:36.653Z,0.90
2023-05-03T16:49:03.853Z,1.00
2023-05-03T16:51:31.476Z,1.15
2023-05-03T16:53:59.016Z,0.90
2023-05-03T16:56:26.233Z,0.80
2023-05-03T16:58:53.492Z,0.95
2023-05-03T17:01:20.022Z,1.00
2023-05-03T17:03:46.675Z,1.30
2023-05-03T17:06:13.507Z,0.80
2023-05-03T17:08:40.263Z,1.20
2023-05-03T17:11:08.789Z,0.77
2023-05-03T17:13:36.507Z,0.80
2023-05-03T17:16:08.938Z,0.80
2023-05-03T17:18:37.356Z,0.82
2023-05-03T17:21:04.821Z,0.80
2023-05-03T17:23:35.813Z,0.77
2023-05-03T17:26:03.772Z,0.80
2023-05-03T17:28:31.738Z,0.80
2023-05-03T17:30:59.371Z,0.70
2023-05-03T17:33:26.271Z,1.00
2023-05-03T17:35:53.816Z,1.30
2023-05-03T17:38:20.473Z,1.00
2023-05-03T17:40:47.490Z,0.77
2023-05-03T17:43:17.368Z,0.85
2023-05-03T17:45:44.792Z,0.80
2023-05-03T17:48:12.526Z,0.73
2023-05-03T17:50:39.535Z,0.70
2023-05-03T17:53:05.997Z,0.73
2023-05-03T17:55:35.974Z,0.63
2023-05-03T17:58:03.255Z,0.80
2023-05-03T18:00:29.776Z,1.08
2023-05-03T18:02:57.120Z,0.82
2023-05-03T18:05:23.743Z,0.90
2023-05-03T18:07:50.269Z,1.10
2023-05-03T18:10:17.994Z,0.80
2023-05-03T18:12:44.594Z,0.90
2023-05-03T18:15:11.427Z,0.88
2023-05-03T18:17:38.198Z,0.75
2023-05-03T18:20:06.510Z,0.80
2023-05-03T18:22:33.461Z,1.45
2023-05-03T18:25:02.052Z,1.33
2023-05-03T18:27:28.841Z,1.00
2023-05-03T18:29:55.306Z,0.95
2023-05-03T18:32:23.504Z,1.00
2023-05-03T18:34:50.174Z,0.75
2023-05-03T18:37:16.705Z,0.98
2023-05-03T18:39:44.213Z,0.80
2023-05-03T18:42:11.227Z,0.90
2023-05-03T18:44:39.618Z,0.90
2023-05-03T18:47:07.472Z,1.05
2023-05-03T18:49:34.274Z,0.90
2023-05-03T18:52:02.569Z,1.27
2023-05-03T18:54:29.372Z,1.10
2023-05-03T18:56:56.057Z,1.20
2023-05-03T18:59:22.592Z,1.20
2023-05-03T19:01:50.193Z,1.13
2023-05-03T19:04:16.908Z,1.70
2023-05-03T19:06:44.095Z,1.30
2023-05-03T19:09:11.830Z,1.27
2023-05-03T19:11:41.269Z,1.08
2023-05-03T19:14:07.779Z,1.40
2023-05-03T19:16:35.415Z,1.20
2023-05-03T19:19:02.501Z,1.30
2023-05-03T19:21:29.188Z,2.10
2023-05-03T19:23:56.931Z,1.20
2023-05-03T19:26:25.959Z,1.40
2023-05-03T19:28:52.383Z,1.80
2023-05-03T19:31:18.877Z,1.73
2023-05-03T19:33:45.460Z,2.10
2023-05-03T19:36:12.914Z,2.45
2023-05-03T19:38:39.352Z,2.35
2023-05-03T19:41:12.066Z,2.50
2023-05-03T19:43:39.377Z,2.10
2023-05-03T19:46:05.992Z,1.77
2023-05-03T19:48:33.110Z,1.67
2023-05-03T19:50:59.966Z,1.60
2023-05-03T19:53:26.969Z,1.80
2023-05-03T19:56:00.870Z,1.30
2023-05-03T19:58:28.010Z,1.77
2023-05-03T20:00:54.695Z,1.20
2023-05-03T20:03:24.312Z,1.30
2023-05-03T20:05:51.411Z,1.20
2023-05-03T20:08:17.966Z,1.40
2023-05-03T20:10:46.287Z,0.97
2023-05-03T20:13:13.286Z,1.20
2023-05-03T20:15:39.883Z,1.70
2023-05-03T20:18:06.429Z,1.30
2023-05-03T20:20:32.953Z,1.50
2023-05-03T20:22:59.454Z,1.90
2023-05-03T20:25:26.608Z,1.33
2023-05-03T20:27:53.357Z,1.30
2023-05-03T20:30:19.937Z,1.13
2023-05-03T20:32:46.436Z,1.20
2023-05-03T20:35:13.523Z,1.63
2023-05-03T20:37:40.012Z,1.10
2023-05-03T20:40:07.497Z,1.13
2023-05-03T20:42:34.178Z,1.30
2023-05-03T20:45:00.868Z,2.27
2023-05-03T20:47:27.778Z,1.27
2023-05-03T20:49:54.284Z,1.40
2023-05-03T20:52:20.902Z,1.80
2023-05-03T20:54:47.426Z,1.47
2023-05-03T20:57:18.676Z,1.50
2023-05-03T20:59:46.342Z,1.27
2023-05-03T21:02:13.869Z,1.40
2023-05-03T21:04:40.584Z,1.43
2023-05-03T21:07:06.983Z,1.33
2023-05-03T21:09:38.621Z,1.50
2023-05-03T21:12:05.306Z,1.67
2023-05-03T21:14:35.882Z,1.30
2023-05-03T21:17:02.707Z,1.43
2023-05-03T21:19:30.323Z,1.33
2023-05-03T21:21:57.917Z,1.63
2023-05-03T21:24:25.708Z,1.60
2023-05-03T21:26:54.186Z,1.90
2023-05-03T21:29:21.568Z,1.30
2023-05-03T21:31:51.197Z,1.73
2023-05-03T21:34:17.783Z,1.50
2023-05-03T21:36:45.182Z,1.60
2023-05-03T21:39:12.080Z,1.53
2023-05-03T21:41:40.642Z,1.50
2023-05-03T21:44:07.108Z,1.70
2023-05-03T21:46:33.607Z,1.87
2023-05-03T21:49:01.412Z,1.63
2023-05-03T21:51:32.278Z,1.67
2023-05-03T21:53:59.003Z,1.67
2023-05-03T21:56:25.617Z,1.80
2023-05-03T21:58:54.134Z,1.77
2023-05-03T22:01:22.681Z,1.50
2023-05-03T22:03:52.523Z,1.43
2023-05-03T22:06:20.009Z,1.60
2023-05-03T22:08:46.442Z,1.80
2023-05-03T22:11:13.922Z,2.00
2023-05-03T22:13:54.582Z,1.93
2023-05-03T22:16:28.182Z,1.70
2023-05-03T22:18:55.792Z,2.30
2023-05-03T22:21:22.217Z,1.90
2023-05-03T22:23:49.681Z,1.80
2023-05-03T22:26:16.405Z,2.40
2023-05-03T22:28:42.916Z,2.57
2023-05-03T22:31:09.580Z,2.67
2023-05-03T22:33:36.991Z,2.77
2023-05-03T22:36:03.674Z,3.03
2023-05-03T22:38:30.341Z,2.80
2023-05-03T22:40:57.934Z,3.13
2023-05-03T22:43:25.690Z,2.60
2023-05-03T22:45:52.129Z,3.03
2023-05-03T22:48:18.718Z,2.70
2023-05-03T22:50:45.222Z,2.87
2023-05-03T22:53:13.665Z,2.10
2023-05-03T22:55:42.123Z,2.70
2023-05-03T22:58:13.760Z,3.77
2023-05-03T23:00:41.250Z,2.43
2023-05-03T23:03:10.816Z,2.63
2023-05-03T23:05:37.350Z,2.47
2023-05-03T23:08:04.067Z,2.50
2023-05-03T23:10:31.480Z,2.93
2023-05-03T23:12:58.282Z,1.93
2023-05-03T23:15:28.546Z,2.57
2023-05-03T23:17:57.966Z,2.80
2023-05-03T23:20:32.914Z,2.40
2023-05-03T23:23:00.860Z,2.40
2023-05-03T23:25:41.564Z,2.63
2023-05-03T23:28:18.730Z,2.10
2023-05-03T23:30:49.808Z,2.20
2023-05-03T23:33:26.291Z,3.20
2023-05-03T23:36:07.858Z,2.40
2023-05-03T23:38:34.311Z,2.50
2023-05-03T23:41:01.541Z,2.70
2023-05-03T23:43:28.059Z,2.47
2023-05-03T23:45:55.705Z,3.17
2023-05-03T23:48:23.960Z,2.40
2023-05-03T23:51:12.240Z,2.17
2023-05-03T23:53:43.502Z,2.43
2023-05-03T23:56:09.931Z,2.23
2023-05-03T23:58:38.424Z,1.97
